Time;durP1;ratioP1;P1;durP2;ratioP2;P2;SDS_P1;SDS_P2;PMS_P1;PMS_P2;Temp;Humidity;BMP_temperature;BMP_pressure;BME280_temperature;BME280_humidity;BME280_pressure;Samples;Min_cycle;Max_cycle;Signal;HPM_P1;HPM_P2
2022/09/05 00:02:00;;;;;;;6.10;3.42;;;;;;;17.55;68.08;101776.56;4997161;28;20045;-81
2022/09/05 00:04:35;;;;;;;4.97;3.08;;;;;;;17.57;68.71;101785.38;5027849;28;20037;-81
2022/09/05 00:07:22;;;;;;;8.88;3.53;;;;;;;17.52;67.70;101777.72;5013862;28;20089;-81
2022/09/05 00:10:14;;;;;;;7.50;3.83;;;;;;;17.52;67.50;101776.84;5032506;28;20494;-81
2022/09/05 00:12:41;;;;;;;10.38;3.35;;;;;;;17.47;68.69;101779.09;5032588;28;20484;-81
2022/09/05 00:15:28;;;;;;;6.60;3.30;;;;;;;17.47;68.33;101779.97;5020177;28;20521;-81
2022/09/05 00:18:33;;;;;;;5.78;3.22;;;;;;;17.46;68.14;101780.13;5023552;28;20042;-81
2022/09/05 00:21:08;;;;;;;7.57;3.40;;;;;;;17.41;69.36;101780.53;5032918;28;20022;-80
2022/09/05 00:23:54;;;;;;;6.05;3.15;;;;;;;17.41;69.29;101780.53;5033446;28;20029;-80
2022/09/05 00:26:32;;;;;;;7.65;3.35;;;;;;;17.40;68.45;101778.81;5022841;28;20044;-82
2022/09/05 00:29:25;;;;;;;7.50;3.50;;;;;;;17.33;68.66;101770.47;5028692;28;20068;-81
2022/09/05 00:32:14;;;;;;;5.03;3.38;;;;;;;17.35;68.67;101773.88;5027489;28;20064;-81
2022/09/05 00:34:55;;;;;;;6.75;3.35;;;;;;;17.29;68.93;101773.59;5032934;28;20026;-81
2022/09/05 00:37:32;;;;;;;6.93;3.63;;;;;;;17.26;68.77;101766.66;5025559;28;20034;-82
2022/09/05 00:40:14;;;;;;;9.60;3.78;;;;;;;17.26;68.48;101780.09;5025476;28;20041;-81
2022/09/05 00:42:42;;;;;;;5.60;3.63;;;;;;;17.19;69.62;101771.72;5031874;28;20026;-81
2022/09/05 00:45:11;;;;;;;5.45;3.40;;;;;;;17.11;69.93;101774.25;5006465;28;20113;-81
2022/09/05 00:47:49;;;;;;;9.52;3.90;;;;;;;17.10;69.91;101774.38;5029511;28;20028;-81
2022/09/05 00:50:24;;;;;;;5.47;3.70;;;;;;;17.06;69.88;101771.13;5031898;28;20034;-81
2022/09/05 00:52:56;;;;;;;5.45;3.63;;;;;;;17.06;70.12;101762.25;5025475;28;20049;-81
2022/09/05 00:56:03;;;;;;;8.02;3.70;;;;;;;17.07;69.24;101761.25;5028642;28;20030;-81
2022/09/05 00:59:08;;;;;;;6.13;3.60;;;;;;;17.06;68.79;101765.78;5033159;28;20617;-81
2022/09/05 01:01:52;;;;;;;8.27;3.30;;;;;;;16.99;69.71;101772.69;5023180;28;20037;-81
2022/09/05 01:04:39;;;;;;;5.85;3.50;;;;;;;16.95;69.94;101774.78;5023882;28;20058;-81
2022/09/05 01:07:14;;;;;;;7.53;3.42;;;;;;;16.94;70.17;101769.56;5039308;28;20010;-81
2022/09/05 01:10:18;;;;;;;6.50;3.60;;;;;;;16.96;68.86;101768.41;5028473;28;20022;-81
2022/09/05 01:13:21;;;;;;;6.57;3.63;;;;;;;16.86;69.87;101767.56;5016488;28;20027;-81
2022/09/05 01:16:15;;;;;;;7.60;4.07;;;;;;;16.87;69.23;101771.94;5037435;28;20040;-81
2022/09/05 01:19:07;;;;;;;5.13;3.40;;;;;;;16.80;69.49;101768.91;5037114;28;20062;-81
2022/09/05 01:21:51;;;;;;;6.80;3.47;;;;;;;16.80;69.79;101779.66;5025685;28;20061;-82
2022/09/05 01:24:52;;;;;;;8.02;3.30;;;;;;;16.77;69.97;101766.50;5022041;28;20026;-81
2022/09/05 01:27:38;;;;;;;7.95;3.47;;;;;;;16.75;70.24;101767.59;5036178;28;20481;-81
2022/09/05 01:30:10;;;;;;;6.80;4.18;;;;;;;16.66;71.16;101769.28;5033528;28;20022;-81
2022/09/05 01:33:06;;;;;;;7.10;3.92;;;;;;;16.65;70.63;101762.19;5034267;28;20038;-81
2022/09/05 01:35:43;;;;;;;8.55;4.18;;;;;;;16.64;70.81;101772.09;5034008;28;20030;-81
2022/09/05 01:38:20;;;;;;;7.22;4.30;;;;;;;16.64;70.99;101768.56;5033732;28;20033;-81
2022/09/05 01:41:22;;;;;;;8.93;4.22;;;;;;;16.64;70.26;101763.22;5033636;28;20085;-82
2022/09/05 01:44:06;;;;;;;6.35;3.67;;;;;;;16.57;71.30;101762.03;5033043;28;20052;-82
2022/09/05 01:47:16;;;;;;;7.88;3.75;;;;;;;16.59;70.22;101757.41;5027918;28;20034;-81
2022/09/05 01:49:52;;;;;;;8.73;3.85;;;;;;;16.56;70.52;101758.50;5001851;28;20098;-81
2022/09/05 01:52:32;;;;;;;9.02;4.00;;;;;;;16.45;71.10;101750.53;5029319;28;20025;-82
2022/09/05 01:55:37;;;;;;;8.07;4.30;;;;;;;16.51;70.59;101760.75;5015225;28;20102;-80
2022/09/05 01:58:36;;;;;;;8.35;3.97;;;;;;;16.49;70.59;101764.53;5026880;28;20049;-81
2022/09/05 02:01:14;;;;;;;6.05;3.88;;;;;;;16.44;70.97;101757.75;5033922;28;20040;-81
2022/09/05 02:03:46;;;;;;;9.18;4.50;;;;;;;16.40;71.29;101758.13;5016424;28;20010;-81
2022/09/05 02:06:38;;;;;;;8.95;4.32;;;;;;;16.43;70.59;101758.72;5033951;28;20026;-82
2022/09/05 02:09:31;;;;;;;8.80;3.80;;;;;;;16.40;70.91;101759.00;5021904;28;20053;-81
2022/09/05 02:12:13;;;;;;;6.57;3.70;;;;;;;16.35;71.40;101765.72;5033826;28;20018;-81
2022/09/05 02:15:03;;;;;;;7.72;4.43;;;;;;;16.35;71.61;101768.41;5033012;28;20045;-82
2022/09/05 02:17:45;;;;;;;10.57;4.53;;;;;;;16.36;71.44;101762.94;5025904;28;20058;-82
2022/09/05 02:20:21;;;;;;;10.82;4.50;;;;;;;16.32;71.55;101772.22;5017999;28;20025;-81
2022/09/05 02:23:22;;;;;;;8.60;4.40;;;;;;;16.31;71.48;101773.19;5016790;28;20038;-81
2022/09/05 02:26:06;;;;;;;11.77;5.15;;;;;;;16.24;71.17;101764.84;5019634;28;20041;-80
2022/09/05 02:28:50;;;;;;;6.70;4.68;;;;;;;16.25;71.38;101776.41;5024649;28;20056;-81
2022/09/05 02:31:26;;;;;;;6.90;4.55;;;;;;;16.23;72.07;101776.53;5036511;28;20045;-81
2022/09/05 02:34:11;;;;;;;10.10;4.88;;;;;;;16.21;72.40;101778.50;5034230;28;20090;-81
2022/09/05 02:36:45;;;;;;;9.15;4.70;;;;;;;16.21;72.32;101773.13;5015288;28;20030;-80
2022/09/05 02:39:35;;;;;;;11.95;5.00;;;;;;;16.20;72.51;101776.78;5032012;28;20082;-82
2022/09/05 02:42:22;;;;;;;10.63;4.75;;;;;;;16.21;71.98;101769.63;5038645;28;20052;-81
2022/09/05 02:45:03;;;;;;;9.43;5.15;;;;;;;16.15;72.25;101778.16;5028700;28;20060;-81
2022/09/05 02:48:07;;;;;;;10.27;4.95;;;;;;;16.17;71.73;101777.06;5036413;28;20021;-81
2022/09/05 02:50:35;;;;;;;8.82;4.50;;;;;;;16.14;72.29;101771.09;4998730;28;20037;-81
2022/09/05 02:53:02;;;;;;;11.32;4.78;;;;;;;16.11;72.50;101774.06;5019999;28;20032;-81
2022/09/05 02:55:48;;;;;;;12.98;5.00;;;;;;;16.13;71.83;101782.81;5037746;28;20030;-80
2022/09/05 02:58:31;;;;;;;6.63;5.20;;;;;;;16.11;72.03;101780.28;5038559;28;20030;-81
2022/09/05 03:01:23;;;;;;;8.60;5.40;;;;;;;16.08;72.01;101776.00;5028084;28;20064;-79
2022/09/05 03:04:24;;;;;;;6.80;4.70;;;;;;;16.10;71.70;101773.19;5037732;28;20038;-81
2022/09/05 03:07:26;;;;;;;10.00;4.82;;;;;;;16.02;72.29;101776.56;5036836;28;20037;-81
2022/09/05 03:10:35;;;;;;;7.18;4.95;;;;;;;16.03;71.75;101778.22;5019599;28;20045;-81
2022/09/05 03:13:14;;;;;;;;;;;;;;;16.10;70.02;101775.88;5037323;28;20041;-81
2022/09/05 03:15:52;;;;;;;;;;;;;;;16.09;69.67;101776.88;5036220;28;19949;-82
2022/09/05 03:18:49;;;;;;;10.93;5.50;;;;;;;15.91;72.40;101774.75;5036327;28;19919;-81
2022/09/05 03:21:31;;;;;;;12.80;5.55;;;;;;;15.95;72.02;101780.72;5025403;28;20050;-82
2022/09/05 03:24:32;;;;;;;6.53;5.68;;;;;;;15.95;71.56;101766.47;5027838;28;20021;-81
2022/09/05 03:27:35;;;;;;;8.68;5.32;;;;;;;15.88;72.50;101775.03;5037759;28;20042;-80
2022/09/05 03:30:10;;;;;;;7.63;5.30;;;;;;;15.84;72.99;101781.63;5024969;28;20081;-80
2022/09/05 03:32:48;;;;;;;6.93;5.22;;;;;;;15.80;72.58;101773.97;5020709;28;20052;-82
2022/09/05 03:35:28;;;;;;;11.50;5.18;;;;;;;15.76;73.12;101778.75;5032133;28;20102;-81
2022/09/05 03:38:16;;;;;;;7.47;4.78;;;;;;;15.78;72.04;101773.25;5023415;28;20021;-81
2022/09/05 03:41:03;;;;;;;8.18;5.07;;;;;;;15.74;72.77;101775.31;5022492;28;20033;-81
2022/09/05 03:43:52;;;;;;;11.30;4.68;;;;;;;15.71;72.70;101778.25;5017622;28;20046;-81
2022/09/05 03:46:39;;;;;;;9.68;5.45;;;;;;;15.68;72.39;101779.34;5018012;28;20090;-81
2022/09/05 03:49:09;;;;;;;8.35;5.38;;;;;;;15.60;73.74;101776.44;5022331;28;20056;-82
2022/09/05 03:51:53;;;;;;;7.90;5.38;;;;;;;15.60;73.52;101773.78;5035657;28;20030;-81
2022/09/05 03:54:30;;;;;;;7.20;5.10;;;;;;;15.57;73.29;101771.38;5025468;28;20074;-82
2022/09/05 03:57:01;;;;;;;7.88;5.70;;;;;;;15.53;73.42;101775.28;5037308;28;20014;-81
2022/09/05 03:59:36;;;;;;;11.85;5.72;;;;;;;15.51;74.18;101774.56;5037303;28;20030;-80
2022/09/05 04:02:05;;;;;;;8.00;5.70;;;;;;;15.46;74.55;101774.09;5037867;28;20081;-82
2022/09/05 04:04:42;;;;;;;;;;;;;;;15.60;71.54;101776.44;5037819;28;20019;-81
2022/09/05 04:07:18;;;;;;;7.55;5.35;;;;;;;15.47;74.13;101770.41;5037450;28;19913;-81
2022/09/05 04:10:12;;;;;;;7.88;5.50;;;;;;;15.47;73.92;101778.44;5037069;28;20018;-81
2022/09/05 04:13:19;;;;;;;8.23;5.28;;;;;;;15.50;72.51;101781.75;5023534;28;20100;-81
2022/09/05 04:16:01;;;;;;;7.63;5.57;;;;;;;15.47;73.51;101776.63;5008224;28;20065;-82
2022/09/05 04:18:35;;;;;;;6.85;5.15;;;;;;;15.43;73.77;101772.50;5037875;28;20048;-82
2022/09/05 04:21:13;;;;;;;7.82;5.40;;;;;;;15.42;74.03;101776.16;5038241;28;20018;-81
2022/09/05 04:24:07;;;;;;;9.18;5.20;;;;;;;15.45;73.56;101775.06;5037351;28;20044;-82
2022/09/05 04:26:54;;;;;;;8.90;5.78;;;;;;;15.45;73.18;101775.06;4990936;28;20034;-81
2022/09/05 04:29:30;;;;;;;7.20;5.68;;;;;;;15.43;73.49;101774.34;5019092;28;20041;-81
2022/09/05 04:32:32;;;;;;;5.82;5.13;;;;;;;15.43;73.69;101775.19;5022725;28;20098;-81
2022/09/05 04:35:21;;;;;;;7.20;5.65;;;;;;;15.36;74.00;101774.00;5023515;28;20036;-81
2022/09/05 04:37:57;;;;;;;;;;;;;;;15.46;71.80;101776.75;5037044;28;20026;-80
2022/09/05 04:41:02;;;;;;;7.45;5.28;;;;;;;15.42;73.22;101778.84;5036301;28;19914;-81
2022/09/05 04:43:38;;;;;;;7.90;5.97;;;;;;;15.39;74.00;101789.81;5036019;28;20451;-81
2022/09/05 04:46:17;;;;;;;6.68;5.38;;;;;;;15.37;74.03;101783.72;5036552;28;20021;-81
2022/09/05 04:49:04;;;;;;;7.03;5.82;;;;;;;15.33;74.13;101785.78;5037207;28;20038;-81
2022/09/05 04:52:00;;;;;;;8.50;5.50;;;;;;;15.30;73.95;101790.53;5033032;28;20034;-81
2022/09/05 04:54:36;;;;;;;11.90;6.20;;;;;;;15.23;75.20;101792.88;5023397;28;20060;-80
2022/09/05 04:57:01;;;;;;;8.65;5.85;;;;;;;15.18;75.44;101785.22;5032275;28;20022;-81
2022/09/05 04:59:36;;;;;;;10.93;5.87;;;;;;;15.13;75.28;101803.47;5016774;28;20077;-81
2022/09/05 05:02:18;;;;;;;7.88;5.72;;;;;;;15.18;74.97;101792.41;5031471;28;20275;-81
2022/09/05 05:04:47;;;;;;;10.32;5.57;;;;;;;15.19;75.68;101804.81;5021806;28;20057;-81
2022/09/05 05:07:21;;;;;;;12.55;6.10;;;;;;;15.17;74.89;101802.25;5033843;28;20057;-81
2022/09/05 05:09:56;;;;;;;8.38;6.10;;;;;;;15.20;75.55;101795.78;5033681;28;20030;-80
2022/09/05 05:12:29;;;;;;;8.88;5.93;;;;;;;15.21;75.25;101804.69;5023394;28;20037;-80
2022/09/05 05:15:03;;;;;;;10.95;6.30;;;;;;;15.16;75.88;101803.22;5019248;28;20030;-82
2022/09/05 05:17:51;;;;;;;11.40;6.25;;;;;;;15.15;75.09;101793.50;5038452;28;20053;-81
2022/09/05 05:20:31;;;;;;;13.23;7.38;;;;;;;15.21;75.17;101804.69;5020656;28;20022;-81
2022/09/05 05:23:07;;;;;;;41.08;18.13;;;;;;;15.17;75.71;101809.41;5039846;28;20025;-81
2022/09/05 05:28:30;;;;;;;9.30;6.93;;;;;;;15.13;76.28;101814.16;5094155;28;20021;-50
2022/09/05 05:31:11;;;;;;;12.73;6.38;;;;;;;15.17;75.79;101812.09;5093302;28;20017;-47
2022/09/05 05:33:38;;;;;;;9.65;6.35;;;;;;;15.17;75.85;101812.97;5097992;28;20036;-48
2022/09/05 05:36:08;;;;;;;10.63;6.40;;;;;;;15.19;76.17;101807.50;5095688;28;20040;-50
2022/09/05 05:39:02;;;;;;;10.63;6.20;;;;;;;15.25;75.53;101804.28;5088874;28;20039;-50
2022/09/05 05:41:47;;;;;;;8.98;6.68;;;;;;;15.25;75.69;101806.13;5086299;28;20024;-47
2022/09/05 05:44:15;;;;;;;9.63;6.70;;;;;;;15.25;76.89;101811.47;5088194;28;20024;-50
2022/09/05 05:46:45;;;;;;;15.38;7.00;;;;;;;15.26;76.83;101805.16;5097704;28;20004;-48
2022/09/05 05:49:16;;;;;;;12.60;6.30;;;;;;;15.29;77.16;101802.25;5097658;28;20021;-51
2022/09/05 05:51:59;;;;;;;8.38;6.65;;;;;;;15.31;76.66;101808.31;5097402;28;20029;-47
2022/09/05 05:54:32;;;;;;;9.43;7.10;;;;;;;15.34;76.70;101819.63;5086295;28;20086;-47
2022/09/05 05:57:35;;;;;;;15.98;7.53;;;;;;;15.41;75.86;101814.63;5094545;28;20043;-49
2022/09/05 06:00:18;;;;;;;11.23;7.03;;;;;;;15.45;76.30;101818.72;5081265;28;20124;-46
2022/09/05 06:03:28;;;;;;;10.82;7.90;;;;;;;15.50;75.36;101823.72;5074679;28;20500;-50
2022/09/05 06:06:27;;;;;;;12.30;8.55;;;;;;;15.57;75.39;101821.38;5068848;28;20036;-47
2022/09/05 06:09:14;;;;;;;9.50;8.10;;;;;;;15.62;75.89;101827.22;5058902;28;20029;-49
2022/09/05 06:12:25;;;;;;;12.68;8.65;;;;;;;15.70;75.14;101835.47;5066451;28;20052;-47
2022/09/05 06:15:24;;;;;;;13.82;9.27;;;;;;;15.82;75.05;101834.50;5051188;28;20043;-47
2022/09/05 06:18:35;;;;;;;12.98;9.75;;;;;;;15.90;74.43;101837.38;5064271;28;20119;-51
2022/09/05 06:21:19;;;;;;;13.05;9.10;;;;;;;16.00;74.41;101832.06;5038274;28;20059;-50
2022/09/05 06:24:09;;;;;;;15.05;8.50;;;;;;;16.11;74.90;101836.56;5069583;28;20066;-49
2022/09/05 06:27:00;;;;;;;14.57;8.98;;;;;;;16.17;74.29;101833.38;5068674;28;20152;-51
2022/09/05 06:29:56;;;;;;;17.25;9.75;;;;;;;16.28;73.77;101829.75;5070314;28;20036;-48
2022/09/05 06:32:24;;;;;;;13.20;9.63;;;;;;;16.42;73.75;101831.25;5054617;28;20064;-49
2022/09/05 06:35:15;;;;;;;14.27;8.75;;;;;;;16.54;73.03;101829.38;5055117;28;20044;-49
2022/09/05 06:38:29;;;;;;;16.25;8.45;;;;;;;16.69;72.49;101828.03;5055002;28;20120;-48
2022/09/05 06:41:24;;;;;;;12.90;8.90;;;;;;;16.87;71.82;101833.66;5033799;28;20095;-47
2022/09/05 06:44:11;;;;;;;17.13;9.13;;;;;;;16.98;71.66;101828.16;5055014;28;20036;-48
2022/09/05 06:46:40;;;;;;;14.30;8.57;;;;;;;17.16;71.04;101836.44;5057883;28;20029;-46
2022/09/05 06:49:16;;;;;;;13.45;8.43;;;;;;;17.29;70.59;101832.66;5060833;28;20021;-49
2022/09/05 06:52:00;;;;;;;12.98;8.23;;;;;;;17.46;69.65;101826.63;5059569;28;20033;-50
2022/09/05 06:55:16;;;;;;;11.35;8.18;;;;;;;17.64;69.03;101828.63;5064563;28;20072;-46
2022/09/05 06:58:27;;;;;;;10.45;7.78;;;;;;;17.86;68.31;101830.19;5028739;28;20055;-47
2022/09/05 07:00:57;;;;;;;13.05;7.82;;;;;;;18.09;66.45;101822.72;4972409;28;20051;-47
2022/09/05 07:03:45;;;;;;;14.23;7.32;;;;;;;18.22;66.73;101831.34;5057690;28;20083;-49
2022/09/05 07:06:28;;;;;;;13.15;7.40;;;;;;;18.41;65.92;101834.97;5053988;28;20033;-50
2022/09/05 07:09:12;;;;;;;9.95;6.82;;;;;;;18.58;64.63;101836.06;5050930;28;20439;-48
2022/09/05 07:12:01;;;;;;;12.05;6.43;;;;;;;18.74;65.27;101838.16;5067873;28;20037;-49
2022/09/05 07:14:33;;;;;;;11.65;7.20;;;;;;;19.05;63.28;101830.66;5061719;28;20036;-47
2022/09/05 07:17:12;;;;;;;11.80;6.13;;;;;;;19.22;62.97;101837.13;5072067;28;20028;-48
2022/09/05 07:19:48;;;;;;;8.77;5.30;;;;;;;19.47;62.77;101840.94;5068112;28;20021;-49
2022/09/05 07:22:21;;;;;;;7.30;4.63;;;;;;;19.72;60.92;101838.50;5074670;28;20103;-50
2022/09/05 07:24:49;;;;;;;8.27;4.30;;;;;;;19.99;60.49;101834.06;5075418;28;20024;-48
2022/09/05 07:27:33;;;;;;;7.65;3.55;;;;;;;20.17;58.48;101836.72;5073219;28;20059;-46
2022/09/05 07:29:59;;;;;;;7.65;3.70;;;;;;;20.44;56.41;101849.25;5072470;28;20085;-46
2022/09/05 07:32:27;;;;;;;5.30;3.22;;;;;;;20.72;55.47;101851.81;5075396;28;20028;-48
2022/09/05 07:34:54;;;;;;;5.85;3.17;;;;;;;20.97;55.23;101844.69;5072014;28;20021;-48
2022/09/05 07:37:29;;;;;;;5.70;3.03;;;;;;;21.20;54.74;101845.81;5073194;28;20032;-46
2022/09/05 07:39:59;;;;;;;5.18;2.83;;;;;;;21.48;54.56;101845.56;5074560;28;20474;-47
2022/09/05 07:42:32;;;;;;;3.85;3.05;;;;;;;21.62;53.91;101849.50;5058334;28;20028;-49
2022/09/05 07:45:05;;;;;;;5.43;2.83;;;;;;;21.88;52.84;101852.06;5076632;28;20021;-46
2022/09/05 07:47:35;;;;;;;6.22;2.97;;;;;;;22.13;51.44;101855.63;5074901;28;20032;-47
2022/09/05 07:50:07;;;;;;;9.88;3.00;;;;;;;22.31;51.51;101852.75;5071224;28;20441;-46
2022/09/05 07:52:38;;;;;;;3.30;2.38;;;;;;;22.57;50.06;101850.91;5074608;28;20469;-48
2022/09/05 07:55:11;;;;;;;5.88;2.55;;;;;;;22.82;49.60;101848.97;5075114;28;20080;-49
2022/09/05 07:57:41;;;;;;;4.65;2.75;;;;;;;23.14;48.36;101856.16;5072445;28;20044;-47
2022/09/05 08:00:11;;;;;;;8.68;2.67;;;;;;;23.36;47.39;101851.78;5076332;28;20501;-50
2022/09/05 08:02:44;;;;;;;4.28;2.25;;;;;;;23.58;48.31;101850.16;5083561;28;20020;-48
2022/09/05 08:05:13;;;;;;;3.08;2.03;;;;;;;23.85;45.87;101849.81;5074558;28;20036;-47
2022/09/05 08:07:43;;;;;;;4.30;2.42;;;;;;;24.18;46.85;101855.81;5073727;28;20031;-50
2022/09/05 08:10:12;;;;;;;6.85;2.63;;;;;;;24.32;44.76;101846.88;5069583;28;20039;-49
2022/09/05 08:12:43;;;;;;;5.00;2.20;;;;;;;24.51;45.06;101845.50;5079594;28;20036;-48
2022/09/05 08:15:17;;;;;;;4.57;2.08;;;;;;;24.68;44.67;101848.94;5077595;28;20033;-49
2022/09/05 08:18:20;;;;;;;3.40;2.08;;;;;;;24.90;45.34;101849.88;5077121;28;20407;-49
2022/09/05 08:21:05;;;;;;;6.53;2.10;;;;;;;25.21;44.96;101842.50;5079840;28;20029;-49
2022/09/05 08:23:52;;;;;;;2.42;1.98;;;;;;;25.41;43.09;101838.16;5073193;28;20021;-50
2022/09/05 08:26:41;;;;;;;7.22;2.22;;;;;;;25.69;43.71;101845.59;5079387;28;20431;-46
2022/09/05 08:29:32;;;;;;;8.02;2.25;;;;;;;26.13;43.41;101846.44;5081439;28;20081;-47
2022/09/05 08:32:08;;;;;;;7.07;2.33;;;;;;;26.53;40.87;101849.47;5077716;28;20034;-47
2022/09/05 08:34:43;;;;;;;4.20;2.13;;;;;;;26.66;40.41;101852.31;5083504;28;20025;-50
2022/09/05 08:37:20;;;;;;;6.18;2.13;;;;;;;26.78;40.44;101858.06;5081162;28;20394;-46
2022/09/05 08:39:47;;;;;;;5.03;1.80;;;;;;;26.97;39.47;101851.03;5087919;28;20115;-48
2022/09/05 08:42:26;;;;;;;4.93;2.00;;;;;;;27.12;39.10;101848.16;5088549;28;20040;-47
2022/09/05 08:45:10;;;;;;;;;;;;;;;27.30;42.45;101851.19;5088285;28;20031;-47
2022/09/05 08:47:56;;;;;;;4.03;1.80;;;;;;;27.61;39.97;101843.50;5083228;28;19908;-48
2022/09/05 08:50:43;;;;;;;4.00;1.92;;;;;;;27.84;37.43;101843.13;5082144;28;20067;-48
2022/09/05 08:53:27;;;;;;;5.28;2.00;;;;;;;28.12;39.15;101836.66;5081890;28;20092;-48
2022/09/05 08:56:16;;;;;;;7.35;1.92;;;;;;;28.30;35.88;101839.59;5088639;28;20020;-47
2022/09/05 08:59:20;;;;;;;3.38;1.70;;;;;;;28.70;37.98;101838.72;5071564;28;20067;-49
2022/09/05 09:02:03;;;;;;;3.67;1.90;;;;;;;28.84;34.41;101832.13;5057390;28;20067;-49
2022/09/05 09:04:43;;;;;;;4.10;1.90;;;;;;;29.05;36.91;101835.66;5081317;28;20032;-48
2022/09/05 09:07:17;;;;;;;4.50;2.03;;;;;;;29.38;34.61;101827.31;5087198;28;20055;-47
2022/09/05 09:10:05;;;;;;;3.58;1.90;;;;;;;29.51;35.72;101820.91;5085799;28;20032;-48
2022/09/05 09:12:53;;;;;;;4.35;1.55;;;;;;;29.71;32.99;101815.28;5087793;28;20032;-50
2022/09/05 09:15:23;;;;;;;;;;;;;;;29.92;36.83;101827.81;5087642;28;20073;-51
2022/09/05 09:17:50;;;;;;;8.00;2.47;;;;;;;29.86;32.08;101824.06;5089061;28;19944;-47
2022/09/05 09:20:44;;;;;;;3.17;1.60;;;;;;;30.02;33.66;101827.31;5090184;28;20028;-49
2022/09/05 09:23:29;;;;;;;3.13;1.90;;;;;;;30.12;32.37;101813.94;5088259;28;20028;-47
2022/09/05 09:26:14;;;;;;;8.38;2.17;;;;;;;30.48;33.73;101814.25;5079914;28;20023;-51
2022/09/05 09:28:41;;;;;;;8.68;2.13;;;;;;;30.68;30.35;101809.41;5069594;28;20028;-50
2022/09/05 09:31:36;;;;;;;3.40;1.70;;;;;;;30.89;32.47;101810.81;5072770;28;20447;-50
2022/09/05 09:34:24;;;;;;;3.10;1.90;;;;;;;31.09;31.50;101805.09;5072407;28;20078;-48
2022/09/05 09:37:19;;;;;;;4.55;1.40;;;;;;;31.27;31.17;101814.38;5069473;28;20070;-52
2022/09/05 09:40:22;;;;;;;6.20;1.70;;;;;;;31.40;31.03;101805.94;5068707;28;20052;-52
2022/09/05 09:43:00;;;;;;;4.18;1.60;;;;;;;31.49;28.49;101798.19;5067475;28;20035;-50
2022/09/05 09:45:26;;;;;;;;;;;;;;;31.80;31.55;101808.09;5072558;28;20036;-50
2022/09/05 09:48:09;;;;;;;2.53;1.40;;;;;;;31.85;29.63;101801.91;5052767;28;19996;-51
2022/09/05 09:51:01;;;;;;;2.40;1.63;;;;;;;32.00;29.87;101799.53;5070119;28;20092;-49
2022/09/05 09:53:45;;;;;;;3.80;1.90;;;;;;;32.21;29.31;101797.28;5063114;28;20029;-52
2022/09/05 09:56:35;;;;;;;2.53;1.40;;;;;;;32.19;27.89;101794.78;5070831;28;20056;-52
2022/09/05 09:59:31;;;;;;;3.22;1.30;;;;;;;32.44;28.08;101797.28;5070530;28;20047;-50
2022/09/05 10:02:07;;;;;;;4.13;1.30;;;;;;;32.58;26.17;101797.00;5068500;28;20032;-52
2022/09/05 10:04:50;;;;;;;1.55;1.30;;;;;;;32.74;25.82;101789.94;5072371;28;20678;-53
2022/09/05 10:07:41;;;;;;;2.40;1.27;;;;;;;32.94;27.48;101797.75;5058060;28;20492;-52
2022/09/05 10:10:42;;;;;;;20.15;3.47;;;;;;;33.22;27.17;101776.88;5069369;28;20478;-51
2022/09/05 10:13:24;;;;;;;5.53;1.55;;;;;;;33.28;25.81;101778.63;5071725;28;20024;-50
2022/09/05 10:16:07;;;;;;;4.25;1.50;;;;;;;33.25;26.60;101777.19;5072331;28;20017;-51
2022/09/05 10:19:04;;;;;;;2.67;1.60;;;;;;;33.26;26.47;101776.13;5065605;28;20118;-50
2022/09/05 10:21:35;;;;;;;3.70;1.40;;;;;;;33.54;24.98;101763.38;5071909;28;20039;-52
2022/09/05 10:24:48;;;;;;;6.85;1.73;;;;;;;33.76;26.27;101770.91;5069576;28;20039;-51
2022/09/05 10:27:55;;;;;;;7.15;1.88;;;;;;;34.04;25.89;101767.22;5040735;28;20481;-54
2022/09/05 10:31:03;;;;;;;27.75;4.82;;;;;;;34.07;24.53;101756.50;5029227;28;20049;-50
2022/09/05 10:33:47;;;;;;;;;;;;;;;34.27;26.41;101769.81;5030702;28;20053;-52
2022/09/05 10:36:30;;;;;;;1.63;1.10;;;;;;;34.16;24.58;101759.69;5050871;28;19952;-50
2022/09/05 10:39:19;;;;;;;4.15;1.23;;;;;;;34.28;25.14;101754.09;5048993;28;20116;-48
2022/09/05 10:42:00;;;;;;;3.42;1.30;;;;;;;34.53;24.54;101758.28;5049353;28;20398;-50
2022/09/05 10:44:45;;;;;;;6.20;1.48;;;;;;;34.50;24.48;101750.50;5050083;28;20049;-48
2022/09/05 10:47:24;;;;;;;3.30;1.40;;;;;;;34.62;22.84;101751.19;5047806;28;20037;-49
2022/09/05 10:50:05;;;;;;;3.80;1.15;;;;;;;34.63;22.81;101750.94;5051945;28;20040;-48
2022/09/05 10:52:39;;;;;;;4.47;1.08;;;;;;;34.68;22.60;101755.69;5046765;28;20047;-47
2022/09/05 10:55:29;;;;;;;3.90;1.42;;;;;;;34.82;23.80;101745.13;5052151;28;20021;-48
2022/09/05 10:58:17;;;;;;;1.65;0.98;;;;;;;35.02;23.98;101739.81;5043436;28;20367;-46
2022/09/05 11:00:49;;;;;;;;;;;;;;;35.28;23.46;101747.56;5052968;28;20034;-47
2022/09/05 11:03:25;;;;;;;4.57;1.10;;;;;;;34.81;21.31;101737.94;5052518;28;19908;-49
2022/09/05 11:05:57;;;;;;;1.63;1.20;;;;;;;34.94;21.79;101739.44;5050416;28;20498;-47
2022/09/05 11:08:41;;;;;;;2.65;0.90;;;;;;;35.16;22.03;101734.69;5049982;28;20033;-47
2022/09/05 11:11:21;;;;;;;2.75;1.10;;;;;;;35.28;22.22;101733.75;5050627;28;20061;-50
2022/09/05 11:13:55;;;;;;;3.22;1.10;;;;;;;35.26;21.45;101731.25;5051018;28;20478;-49
2022/09/05 11:16:30;;;;;;;2.47;1.20;;;;;;;35.31;22.02;101722.19;5054392;28;20073;-48
2022/09/05 11:19:16;;;;;;;2.20;1.30;;;;;;;35.07;21.30;101722.47;5050756;28;20032;-48
2022/09/05 11:21:55;;;;;;;2.92;1.17;;;;;;;34.97;22.14;101725.94;5054051;28;20604;-49
2022/09/05 11:24:38;;;;;;;12.98;2.67;;;;;;;34.90;21.35;101714.28;5054261;28;20056;-50
2022/09/05 11:27:16;;;;;;;35.20;4.57;;;;;;;35.15;22.69;101726.69;5059733;28;20040;-48
2022/09/05 11:29:44;;;;;;;;;;;;;;;35.46;23.45;101725.06;5073472;28;20031;-52
2022/09/05 11:32:43;;;;;;;12.70;1.98;;;;;;;35.38;22.57;101714.50;5071747;28;19962;-47
2022/09/05 11:35:45;;;;;;;10.20;2.42;;;;;;;35.67;23.17;101714.16;5069901;28;20063;-50
2022/09/05 11:38:26;;;;;;;3.45;1.48;;;;;;;35.63;21.64;101701.97;5068877;28;20036;-52
2022/09/05 11:40:57;;;;;;;5.68;1.23;;;;;;;35.65;22.05;101708.88;5071849;28;20386;-50
2022/09/05 11:43:38;;;;;;;2.67;1.30;;;;;;;35.70;21.92;101710.84;5066035;28;20477;-52
2022/09/05 11:46:24;;;;;;;3.13;1.10;;;;;;;35.63;22.39;101704.72;5072162;28;20032;-51
2022/09/05 11:49:05;;;;;;;4.90;1.33;;;;;;;35.54;22.65;101704.38;5073106;28;20442;-53
2022/09/05 11:51:49;;;;;;;2.25;1.38;;;;;;;35.73;21.75;101711.19;5072221;28;20086;-52
2022/09/05 11:54:44;;;;;;;16.42;2.03;;;;;;;35.91;22.90;101709.91;5071253;28;20028;-52
2022/09/05 11:57:48;;;;;;;2.25;1.30;;;;;;;36.17;22.55;101703.69;5072337;28;20067;-53
2022/09/05 12:00:31;;;;;;;2.78;1.27;;;;;;;36.17;21.96;101710.03;5056819;28;20037;-51
2022/09/05 12:03:36;;;;;;;2.42;1.20;;;;;;;36.09;22.12;101705.88;5074702;28;20467;-50
2022/09/05 12:06:32;;;;;;;16.73;3.08;;;;;;;35.98;22.37;101704.16;5074565;28;20036;-51
2022/09/05 12:09:18;;;;;;;5.93;1.60;;;;;;;35.82;21.88;101700.44;5017914;28;20038;-47
2022/09/05 12:12:15;;;;;;;3.60;1.35;;;;;;;35.69;21.34;101698.13;5074511;28;20463;-48
2022/09/05 12:15:08;;;;;;;9.93;1.92;;;;;;;35.65;21.21;101694.25;5065801;28;20041;-51
2022/09/05 12:18:12;;;;;;;18.27;3.05;;;;;;;35.62;22.74;101694.78;5072846;28;20086;-49
2022/09/05 12:21:01;;;;;;;8.38;1.77;;;;;;;35.61;22.66;101688.41;5067463;28;20398;-48
2022/09/05 12:23:54;;;;;;;2.58;1.40;;;;;;;35.45;21.50;101681.13;5074176;28;20032;-48
2022/09/05 12:26:46;;;;;;;6.90;1.70;;;;;;;35.60;22.51;101677.63;5070005;28;20045;-49
2022/09/05 12:29:19;;;;;;;7.25;1.48;;;;;;;35.65;21.75;101680.44;5073845;28;20524;-51
2022/09/05 12:31:52;;;;;;;3.13;1.33;;;;;;;35.58;21.44;101678.72;5073565;28;20045;-51
2022/09/05 12:34:50;;;;;;;4.72;1.60;;;;;;;35.72;23.15;101675.47;5073319;28;20127;-49
2022/09/05 12:37:35;;;;;;;12.27;2.50;;;;;;;35.69;22.15;101678.78;5071534;28;20172;-50
2022/09/05 12:40:19;;;;;;;6.65;1.55;;;;;;;35.37;22.00;101672.22;5074442;28;20028;-49
2022/09/05 12:42:56;;;;;;;5.97;1.58;;;;;;;35.12;21.77;101669.22;5069973;28;20028;-48
2022/09/05 12:45:46;;;;;;;6.38;1.20;;;;;;;34.83;21.61;101672.28;5072854;28;20033;-48
2022/09/05 12:48:22;;;;;;;2.97;1.35;;;;;;;34.59;21.78;101669.81;5072004;28;20032;-50